Time;durP1;ratioP1;P1;durP2;ratioP2;P2;SDS_P1;SDS_P2;PMS_P1;PMS_P2;Temp;Humidity;BMP_temperature;BMP_pressure;BME280_temperature;BME280_humidity;BME280_pressure;Samples;Min_cycle;Max_cycle;Signal;HPM_P1;HPM_P2
2022/03/12 00:00:31;;;;;;;12.75;5.80;;;7.90;60.70;;;;;;5136329;27;20043;-75
2022/03/12 00:02:57;;;;;;;10.93;5.32;;;8.10;60.70;;;;;;5137052;27;20122;-75
2022/03/12 00:05:25;;;;;;;10.88;5.75;;;8.00;60.50;;;;;;5136208;27;20043;-75
2022/03/12 00:07:52;;;;;;;12.25;5.75;;;8.10;60.90;;;;;;5136093;27;20082;-75
2022/03/12 00:10:21;;;;;;;11.52;6.18;;;8.10;61.00;;;;;;5136438;27;20054;-75
2022/03/12 00:12:47;;;;;;;16.33;6.30;;;8.10;60.80;;;;;;5135732;27;20054;-75
2022/03/12 00:15:14;;;;;;;14.10;5.60;;;8.00;60.70;;;;;;5137141;27;20058;-75
2022/03/12 00:17:45;;;;;;;10.18;6.13;;;8.00;61.20;;;;;;5136014;27;20489;-75
2022/03/12 00:20:16;;;;;;;10.65;6.03;;;8.10;60.70;;;;;;5118958;27;20432;-75
2022/03/12 00:22:44;;;;;;;13.65;6.35;;;8.10;61.00;;;;;;5137033;27;20086;-75
2022/03/12 00:25:11;;;;;;;12.95;5.85;;;8.10;61.00;;;;;;5135902;27;20061;-75
2022/03/12 00:27:39;;;;;;;10.73;5.70;;;8.10;61.00;;;;;;5136575;27;20498;-75
2022/03/12 00:30:06;;;;;;;12.10;5.70;;;8.10;61.30;;;;;;5135720;27;20078;-75
2022/03/12 00:32:36;;;;;;;10.00;5.85;;;8.20;60.50;;;;;;5136851;27;20122;-75
2022/03/12 00:35:03;;;;;;;15.60;5.85;;;8.20;61.20;;;;;;5135740;27;20086;-75
2022/03/12 00:37:29;;;;;;;12.13;6.28;;;8.20;60.80;;;;;;5135574;27;20047;-76
2022/03/12 00:39:56;;;;;;;13.60;5.97;;;8.20;61.30;;;;;;5135694;27;20107;-75
2022/03/12 00:42:21;;;;;;;13.07;6.00;;;8.10;60.90;;;;;;5135604;27;20050;-75
2022/03/12 00:44:47;;;;;;;13.77;5.80;;;8.10;61.10;;;;;;5135170;27;20043;-75
2022/03/12 00:47:13;;;;;;;14.15;5.93;;;8.00;61.10;;;;;;5135557;27;20547;-76
2022/03/12 00:49:39;;;;;;;10.55;5.30;;;8.00;60.80;;;;;;5135032;27;20039;-76
2022/03/12 00:52:05;;;;;;;12.60;6.35;;;7.90;60.80;;;;;;5135445;27;20051;-75
2022/03/12 00:54:30;;;;;;;11.63;5.93;;;7.90;60.90;;;;;;5117868;27;20470;-75
2022/03/12 00:56:56;;;;;;;12.20;5.60;;;7.80;61.20;;;;;;5136573;27;20144;-75
2022/03/12 00:59:22;;;;;;;14.60;6.35;;;7.90;60.90;;;;;;5136601;27;20129;-76
2022/03/12 01:01:47;;;;;;;13.13;5.72;;;7.90;60.70;;;;;;5135404;27;20051;-75
2022/03/12 01:04:13;;;;;;;10.40;5.57;;;8.00;60.50;;;;;;5134872;27;20039;-75
2022/03/12 01:06:39;;;;;;;9.40;5.70;;;7.80;60.70;;;;;;5136049;27;20047;-75
2022/03/12 01:09:05;;;;;;;13.52;5.60;;;7.80;60.60;;;;;;5134472;27;20050;-75
2022/03/12 01:11:34;;;;;;;12.98;6.28;;;7.80;61.00;;;;;;5135078;27;20055;-75
2022/03/12 01:14:00;;;;;;;12.75;6.22;;;7.80;60.80;;;;;;5117521;27;20393;-75
2022/03/12 01:16:26;;;;;;;13.85;5.90;;;7.80;60.60;;;;;;5118072;27;20043;-76
2022/03/12 01:18:51;;;;;;;14.02;6.47;;;7.90;60.80;;;;;;5135193;27;20092;-75
2022/03/12 01:21:18;;;;;;;11.13;5.63;;;8.00;60.60;;;;;;5134671;27;20051;-75
2022/03/12 01:23:45;;;;;;;12.02;5.97;;;8.00;60.80;;;;;;5134784;27;20055;-75
2022/03/12 01:26:11;;;;;;;15.00;6.25;;;8.00;60.30;;;;;;5134846;27;20054;-73
2022/03/12 01:28:38;;;;;;;12.27;5.97;;;7.90;60.70;;;;;;5134291;27;20474;-74
2022/03/12 01:31:04;;;;;;;12.00;6.13;;;7.90;60.60;;;;;;5134608;27;20144;-73
2022/03/12 01:33:30;;;;;;;12.63;5.97;;;7.80;60.70;;;;;;5134619;27;20042;-73
2022/03/12 01:35:57;;;;;;;12.65;6.00;;;7.80;61.00;;;;;;5135253;27;20379;-73
2022/03/12 01:38:30;;;;;;;12.40;5.80;;;7.90;61.00;;;;;;5134212;27;20078;-73
2022/03/12 01:40:56;;;;;;;12.88;5.85;;;7.90;61.30;;;;;;5134437;27;20470;-73
2022/03/12 01:43:22;;;;;;;12.05;6.03;;;7.90;61.20;;;;;;5133951;27;20065;-73
2022/03/12 01:45:48;;;;;;;12.45;6.25;;;7.90;61.20;;;;;;5134328;27;20115;-73
2022/03/12 01:48:13;;;;;;;12.80;6.15;;;7.80;61.20;;;;;;5117125;27;20112;-73
2022/03/12 01:50:39;;;;;;;11.57;5.68;;;7.70;61.40;;;;;;5134099;27;20047;-73
2022/03/12 01:53:08;;;;;;;11.80;6.43;;;7.60;61.30;;;;;;5133413;27;20490;-73
2022/03/12 01:55:35;;;;;;;13.30;6.78;;;7.70;61.30;;;;;;5134079;27;20059;-73
2022/03/12 01:58:03;;;;;;;10.13;5.65;;;7.70;61.70;;;;;;5134128;27;20051;-73
2022/03/12 02:00:43;;;;;;;15.30;6.70;;;7.70;61.70;;;;;;5133992;27;20486;-73
2022/03/12 02:03:10;;;;;;;13.55;6.07;;;7.80;61.80;;;;;;5134011;27;20478;-73
2022/03/12 02:05:37;;;;;;;12.05;5.90;;;7.60;61.70;;;;;;5135048;27;20047;-73
2022/03/12 02:08:04;;;;;;;11.38;6.07;;;7.60;62.00;;;;;;5135056;27;20059;-73
2022/03/12 02:10:29;;;;;;;14.55;6.32;;;7.50;62.20;;;;;;5133804;27;20047;-73
2022/03/12 02:12:55;;;;;;;12.77;6.18;;;7.60;62.10;;;;;;5116496;27;20083;-73
2022/03/12 02:15:22;;;;;;;12.70;6.18;;;7.60;62.30;;;;;;5133952;27;20043;-73
2022/03/12 02:17:49;;;;;;;9.30;5.45;;;7.60;62.00;;;;;;5116646;27;20047;-73
2022/03/12 02:20:17;;;;;;;12.82;7.05;;;7.60;62.60;;;;;;5133018;27;20047;-73
2022/03/12 02:22:44;;;;;;;12.00;6.55;;;7.60;62.10;;;;;;5133750;27;20051;-74
2022/03/12 02:25:10;;;;;;;18.08;6.38;;;7.60;62.20;;;;;;5116683;27;20096;-73
2022/03/12 02:27:36;;;;;;;13.90;7.22;;;7.70;62.00;;;;;;5134739;27;20428;-73
2022/03/12 02:30:04;;;;;;;16.83;6.78;;;7.60;61.90;;;;;;5133595;27;20058;-73
2022/03/12 02:32:29;;;;;;;17.67;6.10;;;7.60;62.00;;;;;;5133648;28;20047;-73
2022/03/12 02:34:58;;;;;;;13.13;6.82;;;7.60;62.00;;;;;;5133866;28;20076;-73
2022/03/12 02:37:30;;;;;;;13.88;6.78;;;7.60;62.30;;;;;;5134510;28;20423;-74
2022/03/12 02:39:58;;;;;;;12.18;6.18;;;7.60;62.00;;;;;;5100570;28;20054;-73
2022/03/12 02:42:24;;;;;;;13.60;6.15;;;7.50;62.40;;;;;;5133650;28;20401;-73
2022/03/12 02:44:51;;;;;;;12.65;6.35;;;7.40;62.50;;;;;;5133202;28;20044;-73
2022/03/12 02:47:22;;;;;;;11.48;5.97;;;7.60;62.40;;;;;;5133335;28;20439;-74
2022/03/12 02:49:56;;;;;;;13.15;6.57;;;7.60;61.80;;;;;;5133680;28;20039;-73
2022/03/12 02:52:23;;;;;;;12.30;6.57;;;7.60;63.00;;;;;;5133840;27;20055;-73
2022/03/12 02:54:51;;;;;;;17.85;6.75;;;7.70;62.80;;;;;;5133424;28;20058;-73
2022/03/12 02:57:18;;;;;;;11.50;6.20;;;7.70;62.00;;;;;;5116509;28;20085;-74
2022/03/12 02:59:44;;;;;;;16.20;6.53;;;7.60;62.60;;;;;;5133413;28;20055;-73
2022/03/12 03:02:12;;;;;;;11.80;6.18;;;7.60;62.20;;;;;;5116373;28;20096;-73
2022/03/12 03:04:40;;;;;;;13.18;6.28;;;7.60;62.30;;;;;;5133434;28;20062;-73
2022/03/12 03:07:08;;;;;;;11.57;6.82;;;7.60;62.30;;;;;;5133332;28;20046;-73
2022/03/12 03:09:33;;;;;;;11.93;6.13;;;7.60;61.80;;;;;;5133190;28;20112;-73
2022/03/12 03:12:03;;;;;;;14.68;6.20;;;7.70;61.80;;;;;;5134355;28;20043;-73
2022/03/12 03:14:29;;;;;;;14.80;6.55;;;7.60;61.40;;;;;;5132795;28;20401;-73
2022/03/12 03:16:55;;;;;;;18.40;6.53;;;7.60;61.50;;;;;;5133672;28;20047;-73
2022/03/12 03:19:25;;;;;;;10.27;5.78;;;7.60;61.60;;;;;;5133156;28;20072;-73
2022/03/12 03:21:56;;;;;;;12.75;6.35;;;7.60;61.30;;;;;;5115882;28;20086;-73
2022/03/12 03:24:23;;;;;;;12.52;6.90;;;7.60;61.50;;;;;;5133117;28;20417;-73
2022/03/12 03:26:51;;;;;;;14.48;6.72;;;7.60;61.30;;;;;;5134254;27;20062;-73
2022/03/12 03:29:19;;;;;;;11.15;6.13;;;7.60;61.50;;;;;;5133321;28;20113;-74
2022/03/12 03:31:45;;;;;;;11.43;6.57;;;7.60;61.80;;;;;;5117465;27;20045;-73
2022/03/12 03:34:11;;;;;;;15.68;6.25;;;7.60;61.30;;;;;;5136868;27;20050;-73
2022/03/12 03:36:37;;;;;;;17.63;6.82;;;7.60;61.50;;;;;;5136604;27;20035;-73
2022/03/12 03:39:04;;;;;;;16.00;7.00;;;7.60;61.50;;;;;;5136815;27;20454;-74
2022/03/12 03:41:29;;;;;;;15.75;7.10;;;7.60;61.40;;;;;;5136774;27;20054;-73
2022/03/12 03:43:55;;;;;;;13.13;6.43;;;7.60;60.90;;;;;;5136824;27;20039;-73
2022/03/12 03:46:22;;;;;;;12.15;6.55;;;7.50;61.40;;;;;;5119479;27;20522;-73
2022/03/12 03:48:51;;;;;;;10.70;6.25;;;7.60;61.20;;;;;;5119740;27;20130;-73
2022/03/12 03:51:19;;;;;;;13.73;6.72;;;7.50;61.70;;;;;;5136368;27;20084;-73
2022/03/12 03:53:45;;;;;;;13.95;6.07;;;7.50;61.30;;;;;;5118953;27;20521;-73
2022/03/12 03:56:11;;;;;;;11.40;6.50;;;7.40;61.80;;;;;;5136576;27;20084;-73
2022/03/12 03:58:37;;;;;;;12.77;6.53;;;7.30;61.90;;;;;;5136699;27;20057;-73
2022/03/12 04:01:13;;;;;;;12.38;6.07;;;7.20;61.80;;;;;;5102295;27;20047;-73
2022/03/12 04:03:42;;;;;;;12.85;6.20;;;7.30;62.00;;;;;;5136415;27;20054;-73
2022/03/12 04:06:08;;;;;;;11.52;6.03;;;7.40;61.40;;;;;;5136291;27;20505;-73
2022/03/12 04:08:35;;;;;;;11.45;5.95;;;7.30;61.20;;;;;;5136170;27;20054;-73
2022/03/12 04:11:05;;;;;;;11.88;6.57;;;7.20;62.40;;;;;;5136027;27;20054;-73
2022/03/12 04:13:32;;;;;;;12.27;6.38;;;7.30;62.00;;;;;;5136793;27;20047;-73
2022/03/12 04:16:02;;;;;;;14.20;6.60;;;7.30;61.50;;;;;;5136125;27;20062;-74
2022/03/12 04:18:29;;;;;;;16.00;6.82;;;7.30;61.40;;;;;;5136102;27;20535;-73
2022/03/12 04:20:55;;;;;;;12.70;6.32;;;7.30;61.20;;;;;;5136980;27;20039;-73
2022/03/12 04:23:21;;;;;;;11.70;6.40;;;7.20;61.60;;;;;;5102160;27;20079;-73
2022/03/12 04:25:52;;;;;;;13.30;6.70;;;7.10;62.00;;;;;;5118857;27;20086;-73
2022/03/12 04:28:20;;;;;;;14.20;6.70;;;7.00;61.60;;;;;;5118749;27;20103;-73
2022/03/12 04:30:45;;;;;;;14.70;6.40;;;7.10;62.00;;;;;;5118092;27;20054;-73
2022/03/12 04:33:14;;;;;;;13.00;6.57;;;7.20;62.00;;;;;;5135410;27;20088;-73
2022/03/12 04:35:42;;;;;;;11.45;6.43;;;7.20;61.40;;;;;;5135956;27;20043;-74
2022/03/12 04:38:09;;;;;;;12.13;6.15;;;7.20;61.40;;;;;;5136697;27;20089;-73
2022/03/12 04:40:38;;;;;;;13.20;7.07;;;7.30;61.70;;;;;;5135658;27;20058;-73
2022/03/12 04:43:05;;;;;;;12.30;6.63;;;7.30;61.40;;;;;;5134652;27;20359;-73
2022/03/12 04:45:31;;;;;;;18.05;6.40;;;7.20;61.20;;;;;;5135259;27;20082;-73
2022/03/12 04:47:57;;;;;;;10.73;6.43;;;7.10;61.30;;;;;;5136537;27;20087;-73
2022/03/12 04:50:24;;;;;;;13.75;6.72;;;7.00;61.70;;;;;;5135385;27;20499;-73
2022/03/12 04:52:53;;;;;;;17.45;6.90;;;7.00;61.40;;;;;;5148024;27;20504;-73
2022/03/12 04:55:22;;;;;;;11.82;5.80;;;7.00;61.70;;;;;;5138876;27;20508;-73
2022/03/12 04:57:49;;;;;;;16.55;6.25;;;7.00;61.30;;;;;;5138529;27;20089;-73
2022/03/12 05:00:19;;;;;;;12.13;6.03;;;6.90;61.20;;;;;;5138863;27;20111;-73
2022/03/12 05:02:46;;;;;;;13.20;6.35;;;6.90;61.50;;;;;;5138759;27;20038;-73
2022/03/12 05:05:15;;;;;;;13.05;6.18;;;6.90;61.30;;;;;;5138776;27;20126;-73
2022/03/12 05:07:45;;;;;;;13.05;6.20;;;6.80;61.80;;;;;;5139380;27;20091;-73
2022/03/12 05:10:12;;;;;;;13.07;6.05;;;6.90;61.40;;;;;;5138350;27;20039;-73
2022/03/12 05:12:43;;;;;;;11.48;6.00;;;6.90;61.50;;;;;;5138397;27;20099;-74
2022/03/12 05:15:13;;;;;;;10.85;6.00;;;6.80;61.70;;;;;;5138096;27;20076;-73
2022/03/12 05:17:40;;;;;;;14.32;6.32;;;6.80;61.80;;;;;;5138357;27;20061;-73
2022/03/12 05:20:07;;;;;;;10.75;5.88;;;6.90;61.20;;;;;;5138041;27;20103;-73
2022/03/12 05:22:33;;;;;;;11.63;5.88;;;6.90;61.50;;;;;;5138226;27;20054;-73
2022/03/12 05:24:58;;;;;;;11.10;5.75;;;6.80;61.50;;;;;;5137885;27;20053;-73
2022/03/12 05:27:25;;;;;;;12.98;6.53;;;6.90;61.60;;;;;;5138642;27;20076;-74
2022/03/12 05:29:54;;;;;;;12.88;5.78;;;6.90;61.60;;;;;;5121740;27;20039;-73
2022/03/12 05:32:20;;;;;;;10.63;5.22;;;7.00;61.40;;;;;;5138061;27;20046;-73
2022/03/12 05:34:46;;;;;;;13.88;6.72;;;7.10;61.60;;;;;;5156295;27;20095;-73
2022/03/12 05:37:11;;;;;;;11.88;5.90;;;7.10;61.40;;;;;;5137979;27;20046;-73
2022/03/12 05:39:37;;;;;;;12.18;5.53;;;7.10;60.80;;;;;;5156534;27;20561;-73
2022/03/12 05:42:05;;;;;;;11.73;5.68;;;7.00;60.60;;;;;;5137871;27;20122;-73
2022/03/12 05:44:34;;;;;;;11.35;6.30;;;6.80;60.70;;;;;;5137446;27;20050;-73
2022/03/12 05:47:03;;;;;;;13.38;5.78;;;6.80;61.00;;;;;;5156211;27;20049;-73
2022/03/12 05:49:29;;;;;;;12.90;5.50;;;6.80;60.90;;;;;;5155990;27;20206;-73
2022/03/12 05:51:55;;;;;;;17.67;6.05;;;6.90;61.50;;;;;;5137508;27;20039;-73
2022/03/12 05:54:21;;;;;;;10.57;5.63;;;7.10;61.10;;;;;;5136861;27;20540;-73
2022/03/12 05:56:47;;;;;;;10.38;5.45;;;7.20;60.50;;;;;;5137552;27;20039;-73
2022/03/12 05:59:13;;;;;;;11.63;5.90;;;7.10;60.70;;;;;;5155838;27;20125;-73
2022/03/12 06:01:39;;;;;;;10.63;5.85;;;7.10;60.70;;;;;;5137589;27;20089;-73
2022/03/12 06:04:05;;;;;;;15.98;5.70;;;7.00;61.00;;;;;;5137866;27;20469;-73
2022/03/12 06:06:34;;;;;;;10.85;5.80;;;7.10;60.50;;;;;;5137551;27;20045;-73
2022/03/12 06:09:00;;;;;;;12.30;5.15;;;7.10;60.80;;;;;;5137781;27;20050;-73
2022/03/12 06:11:27;;;;;;;18.15;5.97;;;7.20;61.40;;;;;;5120105;27;20374;-74
2022/03/12 06:14:00;;;;;;;11.38;5.53;;;7.00;61.20;;;;;;5137176;27;20051;-73
2022/03/12 06:16:26;;;;;;;13.68;5.72;;;7.00;61.10;;;;;;5137411;27;20047;-73
2022/03/12 06:18:54;;;;;;;12.30;5.88;;;7.00;61.30;;;;;;5137158;27;20060;-73
2022/03/12 06:21:21;;;;;;;11.85;5.78;;;7.00;61.10;;;;;;5155520;27;20547;-73
2022/03/12 06:23:47;;;;;;;15.45;5.95;;;7.00;61.20;;;;;;5137209;27;20047;-73
2022/03/12 06:26:14;;;;;;;15.07;5.78;;;7.00;61.60;;;;;;5119928;27;20542;-73
2022/03/12 06:28:44;;;;;;;9.63;5.20;;;6.80;61.10;;;;;;5119872;27;20099;-73
2022/03/12 06:31:12;;;;;;;10.07;6.00;;;6.90;61.70;;;;;;5136989;27;20145;-73
2022/03/12 06:33:39;;;;;;;9.90;5.90;;;7.00;61.40;;;;;;5136959;27;20392;-73
2022/03/12 06:36:08;;;;;;;9.35;5.40;;;6.80;61.10;;;;;;5137060;27;20051;-74
2022/03/12 06:38:37;;;;;;;13.32;5.30;;;6.90;61.50;;;;;;5136856;27;20485;-73
2022/03/12 06:41:03;;;;;;;9.73;5.25;;;6.90;61.80;;;;;;5137051;27;20147;-73
2022/03/12 06:43:31;;;;;;;12.27;5.13;;;6.90;61.70;;;;;;5136683;27;20129;-73
2022/03/12 06:45:58;;;;;;;16.20;6.57;;;6.90;61.20;;;;;;5137118;27;20077;-73
2022/03/12 06:48:24;;;;;;;13.02;5.43;;;6.90;61.80;;;;;;5136771;27;20122;-73
2022/03/12 06:50:51;;;;;;;11.70;5.45;;;6.90;61.20;;;;;;5154897;27;20481;-73
2022/03/12 06:53:16;;;;;;;9.68;5.22;;;6.70;61.80;;;;;;5133241;27;20078;-73
2022/03/12 06:55:43;;;;;;;13.38;6.10;;;6.70;61.80;;;;;;5134522;28;20375;-73
2022/03/12 06:58:09;;;;;;;12.68;5.75;;;6.90;61.50;;;;;;5133539;28;20058;-73
2022/03/12 07:00:35;;;;;;;14.07;5.43;;;7.00;61.20;;;;;;5134485;27;20043;-73
2022/03/12 07:03:01;;;;;;;12.40;5.85;;;7.00;61.40;;;;;;5133444;28;20043;-73
2022/03/12 07:05:27;;;;;;;10.00;6.05;;;7.20;61.30;;;;;;5116279;27;20432;-73
2022/03/12 07:07:54;;;;;;;8.80;4.97;;;7.10;60.80;;;;;;5136216;27;20516;-73
2022/03/12 07:10:20;;;;;;;12.93;6.32;;;7.20;61.60;;;;;;5137286;27;20043;-73
2022/03/12 07:12:47;;;;;;;14.00;5.35;;;7.30;61.20;;;;;;5137909;27;20047;-73
2022/03/12 07:15:14;;;;;;;11.40;5.32;;;7.40;61.50;;;;;;5136840;27;20082;-73
2022/03/12 07:17:41;;;;;;;11.05;5.40;;;7.20;61.10;;;;;;5137309;27;20165;-73
2022/03/12 07:20:08;;;;;;;13.13;4.93;;;7.20;61.20;;;;;;5137517;27;20051;-73
2022/03/12 07:22:34;;;;;;;9.90;5.53;;;7.20;61.30;;;;;;5137229;27;20089;-73
2022/03/12 07:25:00;;;;;;;12.02;6.05;;;7.20;61.30;;;;;;5137125;27;20429;-73
2022/03/12 07:27:26;;;;;;;13.30;5.72;;;7.10;61.20;;;;;;5137737;27;20074;-73
2022/03/12 07:29:53;;;;;;;10.80;5.05;;;7.20;61.20;;;;;;5136947;27;20051;-74
2022/03/12 07:32:19;;;;;;;11.93;5.63;;;7.30;61.40;;;;;;5136772;27;20551;-74
2022/03/12 07:34:45;;;;;;;11.93;5.10;;;7.30;61.30;;;;;;5136965;27;20051;-74
2022/03/12 07:37:12;;;;;;;12.48;5.68;;;7.30;61.50;;;;;;5119797;27;20047;-73
2022/03/12 07:39:41;;;;;;;11.20;5.50;;;7.40;61.50;;;;;;5136888;27;20051;-73
2022/03/12 07:42:07;;;;;;;10.50;5.40;;;7.30;61.60;;;;;;5136876;27;20444;-73
2022/03/12 07:44:33;;;;;;;10.75;5.47;;;7.40;61.70;;;;;;5136338;27;20535;-73
2022/03/12 07:46:59;;;;;;;15.18;6.03;;;7.40;61.90;;;;;;5136627;27;20043;-74
2022/03/12 07:49:25;;;;;;;13.00;5.82;;;7.40;61.70;;;;;;5119518;27;20090;-74
2022/03/12 07:51:52;;;;;;;9.60;5.55;;;7.50;61.50;;;;;;5136384;27;20090;-73
2022/03/12 07:54:18;;;;;;;9.60;5.70;;;7.60;61.50;;;;;;5136273;27;20113;-74
2022/03/12 07:56:44;;;;;;;10.02;5.72;;;7.60;61.30;;;;;;5136774;27;20383;-74
2022/03/12 07:59:11;;;;;;;10.68;6.28;;;7.70;61.50;;;;;;5136350;27;20078;-74
2022/03/12 08:01:37;;;;;;;10.38;5.43;;;7.80;61.90;;;;;;5119476;27;20082;-73
2022/03/12 08:04:04;;;;;;;10.25;5.78;;;7.90;61.80;;;;;;5136543;27;20039;-73
2022/03/12 08:06:30;;;;;;;13.93;5.88;;;8.00;61.50;;;;;;5136771;27;20126;-74
2022/03/12 08:08:57;;;;;;;14.05;6.07;;;8.10;61.60;;;;;;5136378;27;20047;-73
2022/03/12 08:11:28;;;;;;;16.92;6.03;;;8.10;62.20;;;;;;5135988;27;20047;-73
2022/03/12 08:14:06;;;;;;;11.30;5.80;;;8.20;61.90;;;;;;5136017;27;20059;-74
2022/03/12 08:16:34;;;;;;;13.30;6.18;;;8.30;61.90;;;;;;5136144;27;20504;-74
2022/03/12 08:19:05;;;;;;;11.45;6.05;;;8.50;61.90;;;;;;5136091;27;20059;-74
2022/03/12 08:21:31;;;;;;;11.32;5.57;;;8.60;61.90;;;;;;5136069;27;20129;-73
2022/03/12 08:23:58;;;;;;;13.27;5.80;;;8.80;62.30;;;;;;5137279;27;20180;-74
2022/03/12 08:26:25;;;;;;;13.63;5.78;;;8.90;61.80;;;;;;5118879;27;20458;-73
2022/03/12 08:28:51;;;;;;;12.35;6.25;;;9.00;61.50;;;;;;5135646;27;20363;-74
2022/03/12 08:31:18;;;;;;;10.90;5.45;;;9.10;62.10;;;;;;5135290;27;20039;-73
2022/03/12 08:33:44;;;;;;;11.65;5.68;;;9.10;61.50;;;;;;5135758;27;20051;-74
2022/03/12 08:36:10;;;;;;;12.55;6.13;;;9.10;61.80;;;;;;5135646;27;20475;-74
2022/03/12 08:38:37;;;;;;;13.52;6.45;;;9.20;61.50;;;;;;5136816;27;20047;-74
2022/03/12 08:41:05;;;;;;;12.38;6.70;;;9.20;61.60;;;;;;5135668;27;20050;-74
2022/03/12 08:43:32;;;;;;;10.73;5.95;;;9.00;61.50;;;;;;5117399;27;20043;-74
2022/03/12 08:46:00;;;;;;;14.63;6.10;;;9.00;62.30;;;;;;5135558;27;20107;-74
2022/03/12 08:48:26;;;;;;;12.82;7.25;;;9.20;62.00;;;;;;5135956;27;20432;-74
2022/03/12 08:50:52;;;;;;;11.90;6.35;;;9.50;62.40;;;;;;5135233;27;20079;-74
2022/03/12 08:53:18;;;;;;;12.95;7.10;;;9.70;61.70;;;;;;5145991;27;20448;-74
2022/03/12 08:55:43;;;;;;;12.05;6.35;;;9.80;61.70;;;;;;5121759;27;20097;-73
2022/03/12 08:58:09;;;;;;;12.23;6.75;;;9.70;61.90;;;;;;5138826;27;20126;-74
2022/03/12 09:00:36;;;;;;;14.82;6.32;;;9.80;61.80;;;;;;5138782;27;20129;-74
2022/03/12 09:03:02;;;;;;;13.80;7.40;;;9.80;61.60;;;;;;5139245;27;20050;-78
2022/03/12 09:05:27;;;;;;;14.70;6.80;;;9.90;62.30;;;;;;5138666;27;20042;-73
2022/03/12 09:07:53;;;;;;;16.15;6.60;;;10.20;62.00;;;;;;5138603;27;20114;-74
2022/03/12 09:10:20;;;;;;;19.92;7.60;;;10.30;61.90;;;;;;5121265;27;20166;-75
2022/03/12 09:12:46;;;;;;;17.17;7.57;;;10.40;61.60;;;;;;5121453;27;20060;-73
2022/03/12 09:15:13;;;;;;;15.00;7.05;;;10.30;61.90;;;;;;5137969;27;20412;-73
2022/03/12 09:17:40;;;;;;;12.80;6.53;;;10.30;62.60;;;;;;5138376;27;20057;-74
2022/03/12 09:20:07;;;;;;;12.57;7.15;;;10.30;62.60;;;;;;5138481;27;20397;-73
2022/03/12 09:22:33;;;;;;;18.67;7.05;;;10.20;62.80;;;;;;5138296;27;20043;-73
2022/03/12 09:25:01;;;;;;;13.75;6.88;;;10.40;62.90;;;;;;5138212;27;20478;-73
2022/03/12 09:27:27;;;;;;;16.50;6.93;;;10.50;63.20;;;;;;5138182;27;20046;-76
2022/03/12 09:29:53;;;;;;;12.75;6.90;;;10.70;62.90;;;;;;5123426;27;20050;-73
2022/03/12 09:32:20;;;;;;;13.52;7.30;;;10.80;63.20;;;;;;5146020;27;20051;-72
2022/03/12 09:34:46;;;;;;;14.07;6.97;;;11.00;64.00;;;;;;5121322;27;20047;-72
2022/03/12 09:37:11;;;;;;;12.45;7.38;;;11.20;63.40;;;;;;5137981;27;20149;-73
2022/03/12 09:39:37;;;;;;;14.18;8.07;;;11.30;63.90;;;;;;5138314;27;20046;-74
2022/03/12 09:42:03;;;;;;;11.63;7.38;;;11.30;63.70;;;;;;5121076;27;20034;-74
2022/03/12 09:44:29;;;;;;;15.35;7.85;;;11.20;64.60;;;;;;5120340;27;20053;-73
2022/03/12 09:46:55;;;;;;;11.82;6.55;;;11.30;64.40;;;;;;5103837;27;20498;-73
2022/03/12 09:49:21;;;;;;;13.00;6.90;;;11.40;64.00;;;;;;5138068;27;20043;-74
2022/03/12 09:51:47;;;;;;;12.70;7.10;;;11.50;64.50;;;;;;5137277;27;20084;-74
2022/03/12 09:54:13;;;;;;;17.33;7.25;;;11.70;64.90;;;;;;5137314;27;20421;-74
2022/03/12 09:56:39;;;;;;;16.27;7.97;;;11.70;64.90;;;;;;5137707;27;20143;-77
2022/03/12 09:59:07;;;;;;;11.88;7.00;;;11.60;65.70;;;;;;5137420;27;20038;-75
2022/03/12 10:01:34;;;;;;;12.25;7.45;;;11.80;65.80;;;;;;5120822;27;20058;-75
2022/03/12 10:03:59;;;;;;;13.77;7.53;;;11.90;65.00;;;;;;5137638;27;20374;-75
2022/03/12 10:06:25;;;;;;;12.82;7.30;;;12.10;65.10;;;;;;5137304;27;20034;-74
2022/03/12 10:08:55;;;;;;;13.07;7.95;;;12.10;65.50;;;;;;5137530;27;20123;-72
2022/03/12 10:11:21;;;;;;;13.45;7.70;;;12.10;65.80;;;;;;5121704;27;20046;-73
2022/03/12 10:13:47;;;;;;;16.35;8.50;;;12.10;66.10;;;;;;5155222;27;20047;-73
2022/03/12 10:16:14;;;;;;;18.85;8.55;;;12.20;67.20;;;;;;5155295;27;20042;-73
2022/03/12 10:18:41;;;;;;;13.35;7.80;;;12.40;67.40;;;;;;5137290;27;20413;-73
2022/03/12 10:21:07;;;;;;;15.02;7.47;;;12.40;67.30;;;;;;5137449;27;20047;-73
2022/03/12 10:23:34;;;;;;;13.13;7.50;;;12.30;67.70;;;;;;5137115;27;20051;-73
2022/03/12 10:25:59;;;;;;;13.60;7.68;;;12.50;68.40;;;;;;5155441;27;20050;-73
2022/03/12 10:28:26;;;;;;;12.05;7.47;;;12.50;68.00;;;;;;5155459;27;20049;-73
2022/03/12 10:30:53;;;;;;;11.40;7.90;;;12.60;68.20;;;;;;5137107;27;20084;-73
2022/03/12 10:33:24;;;;;;;14.50;8.30;;;12.50;68.20;;;;;;5155430;27;20083;-73
2022/03/12 10:35:50;;;;;;;14.55;7.63;;;12.70;68.60;;;;;;5137108;27;20473;-73
2022/03/12 10:38:17;;;;;;;14.63;8.10;;;12.90;68.40;;;;;;5119729;27;20055;-73
2022/03/12 10:40:44;;;;;;;12.48;7.93;;;13.10;68.00;;;;;;5155337;27;20053;-73
2022/03/12 10:43:13;;;;;;;12.65;8.15;;;13.00;68.20;;;;;;5142261;27;20465;-72
2022/03/12 10:45:50;;;;;;;18.60;9.10;;;13.00;68.80;;;;;;5139540;27;20085;-74
2022/03/12 10:48:19;;;;;;;;;;;12.90;69.20;;;;;;5133017;27;20424;-73
2022/03/12 10:50:48;;;;;;;16.63;8.68;;;13.10;70.00;;;;;;5139486;27;19919;-72
2022/03/12 10:53:15;;;;;;;14.27;8.25;;;13.40;69.50;;;;;;5138059;27;20058;-80
2022/03/12 10:55:44;;;;;;;16.60;9.60;;;13.40;69.40;;;;;;5108128;27;20122;-73
2022/03/12 10:58:22;;;;;;;14.43;8.80;;;13.60;69.70;;;;;;5126918;27;20042;-75
2022/03/12 11:00:56;;;;;;;15.13;8.32;;;13.60;70.00;;;;;;5123651;27;20126;-75
2022/03/12 11:03:24;;;;;;;13.48;7.93;;;13.80;69.90;;;;;;5118922;27;20053;-75
2022/03/12 11:05:54;;;;;;;14.82;8.23;;;13.90;70.20;;;;;;5118149;27;20047;-74
2022/03/12 11:08:28;;;;;;;15.27;8.82;;;13.90;69.90;;;;;;5119148;27;20104;-82
2022/03/12 11:10:57;;;;;;;12.75;8.25;;;13.80;70.00;;;;;;5120362;27;20508;-73
2022/03/12 11:13:47;;;;;;;15.20;8.55;;;13.70;69.50;;;;;;5120217;27;20039;-74
2022/03/12 11:16:24;;;;;;;15.35;8.70;;;13.70;70.70;;;;;;5103204;27;20061;-75
2022/03/12 11:18:52;;;;;;;14.55;9.00;;;14.00;70.30;;;;;;5120111;27;20055;-74
2022/03/12 11:21:37;;;;;;;15.02;8.73;;;14.10;69.90;;;;;;5120491;27;20440;-72
2022/03/12 11:24:12;;;;;;;14.55;8.55;;;14.10;70.40;;;;;;5120171;27;20043;-74
2022/03/12 11:26:52;;;;;;;18.27;8.50;;;14.10;70.40;;;;;;5120265;27;20055;-74
2022/03/12 11:29:25;;;;;;;16.38;8.63;;;14.30;71.00;;;;;;5119953;27;20058;-70
2022/03/12 11:31:51;;;;;;;16.13;8.05;;;14.50;70.30;;;;;;5138002;27;20035;-72
2022/03/12 11:34:22;;;;;;;18.50;8.82;;;14.40;69.90;;;;;;5120501;27;20054;-77
2022/03/12 11:36:54;;;;;;;14.20;8.27;;;14.40;70.30;;;;;;5120364;27;20490;-77
2022/03/12 11:39:30;;;;;;;12.23;8.13;;;14.60;70.40;;;;;;5119780;27;20050;-79
2022/03/12 11:42:11;;;;;;;16.58;8.10;;;14.20;70.50;;;;;;5104425;27;20086;-75
2022/03/12 11:44:50;;;;;;;14.30;8.60;;;14.60;71.30;;;;;;5120061;27;20129;-74
2022/03/12 11:47:19;;;;;;;13.20;8.23;;;14.70;71.50;;;;;;5119706;27;20047;-78
2022/03/12 11:49:46;;;;;;;14.80;8.35;;;15.00;71.20;;;;;;5119515;27;20141;-78
2022/03/12 11:52:12;;;;;;;11.25;7.93;;;15.40;70.10;;;;;;5119383;27;20554;-78
2022/03/12 11:54:43;;;;;;;13.07;7.95;;;15.40;70.50;;;;;;5119076;27;20402;-78
2022/03/12 11:57:10;;;;;;;14.85;8.57;;;15.60;70.40;;;;;;5102461;27;20064;-79
2022/03/12 11:59:36;;;;;;;16.80;7.88;;;15.90;70.60;;;;;;5102387;27;20054;-77
2022/03/12 12:02:15;;;;;;;16.55;8.07;;;16.20;70.30;;;;;;5119342;27;20035;-78
2022/03/12 12:04:41;;;;;;;13.65;8.13;;;16.30;69.90;;;;;;5119300;27;20082;-78
2022/03/12 12:07:06;;;;;;;14.27;8.20;;;15.70;69.80;;;;;;5102243;27;20062;-77
2022/03/12 12:09:32;;;;;;;12.85;7.38;;;15.60;70.60;;;;;;5119327;27;20523;-77
2022/03/12 12:12:00;;;;;;;12.25;6.38;;;15.60;70.80;;;;;;5118559;27;20050;-79
2022/03/12 12:14:26;;;;;;;14.70;6.32;;;15.50;72.20;;;;;;5118445;27;20047;-80
2022/03/12 12:16:56;;;;;;;9.82;6.05;;;16.00;71.70;;;;;;5119008;27;20050;-80
2022/03/12 12:19:22;;;;;;;10.60;6.32;;;16.40;70.50;;;;;;5118829;27;20082;-81
2022/03/12 12:21:48;;;;;;;11.00;6.47;;;16.50;70.40;;;;;;5118912;27;20086;-80
2022/03/12 12:24:32;;;;;;;10.48;6.65;;;16.10;70.70;;;;;;5118979;27;20047;-79
2022/03/12 12:27:07;;;;;;;10.10;6.30;;;16.70;70.70;;;;;;5118868;27;20047;-76
2022/03/12 12:29:45;;;;;;;11.80;7.00;;;16.90;69.70;;;;;;5118546;27;20126;-73
2022/03/12 12:32:12;;;;;;;11.73;6.70;;;16.50;70.20;;;;;;5101744;27;20050;-74
2022/03/12 12:35:03;;;;;;;11.05;7.07;;;16.10;70.40;;;;;;5118444;27;20112;-74
2022/03/12 12:37:47;;;;;;;11.35;6.78;;;16.30;71.00;;;;;;5118766;27;20051;-73
2022/03/12 12:40:23;;;;;;;14.85;6.43;;;16.00;70.10;;;;;;5118615;27;20047;-74
2022/03/12 12:42:50;;;;;;;13.68;6.65;;;16.10;70.60;;;;;;5118271;27;20047;-73
2022/03/12 12:45:21;;;;;;;11.10;6.25;;;16.10;70.80;;;;;;5118101;27;20043;-74
2022/03/12 12:47:47;;;;;;;10.85;6.30;;;16.20;71.20;;;;;;5122149;27;20058;-73